METAR Data
IDs: Format: Raw Decoded Include TAF

Data at: 1732 UTC 01 Mar 2021

METAR for:KDLS (The Dalles Muni, OR, US)
Text:KDLS 011653Z AUTO 00000KT 10SM CLR 03/01 A3013 RMK AO2 SLP204 T00330011
Temperature: 3.3°C ( 38°F)
Dewpoint: 1.1°C ( 34°F) [RH = 85%]
Pressure (altimeter):30.13 inches Hg (1020.4 mb) [Sea level pressure: 1020.4 mb]
Winds:calm
Visibility:10 or more sm (16+ km)
Ceiling:at least 12,000 feet AGL
Clouds:sky clear below 12,000 feet AGL
QC Flag:automated observation with no human augmentation